Brilliance Of The Seas — C6SJ5 — position and weather

sailwx.info

Track history (hours):
 
Tides and Currents Weather Stations Pressure Air Temp Water Temp Dewpoint Dewpoint Depression Visibility Wind Speed Wind Dir Waves Ship Positions

Brilliance Of The Seas

Operator: Royal Caribbean Cruises Ltd

Last reported at 2014-Aug-29 02:31 UTC. Time now 2014-Aug-29 05:32 UTC.
Position N 59°29' E 010°35'.

Type: Ship. MMSI: 311361000.

Date/timePositionNaut miles runAvg speedWind from/ knotsBaromVisibWave heightAir tempDewpointWater temp
2014-Aug-29 02:31N 59°29' E 010°35'1717.9
2014-Aug-29 01:33N 59°12' E 010°39'1413.5
2014-Aug-29 00:33N 58°58' E 010°34'5914.4
2014-Aug-28 20:27N 58°00' E 010°51'1314.9
2014-Aug-28 19:33N 57°50' E 011°07'1514.9
2014-Aug-28 18:33N 57°39' E 011°25'9 9.0
2014-Aug-28 17:34N 57°40' E 011°42'4 4.2
2014-Aug-28 16:32N 57°42' E 011°49'0 0.0
2014-Aug-28 15:32N 57°42' E 011°49'0 0.0
2014-Aug-28 14:32N 57°42' E 011°49'0 0.0
2014-Aug-28 13:32N 57°42' E 011°49'0 0.0
2014-Aug-28 12:32N 57°42' E 011°49'0 0.0
2014-Aug-28 11:32N 57°42' E 011°49'0 0.0
2014-Aug-28 10:32N 57°42' E 011°49'0 0.0
2014-Aug-28 09:32N 57°42' E 011°49'0 0.0
2014-Aug-28 08:32N 57°42' E 011°49'0 0.1
2014-Aug-28 07:34N 57°42' E 011°49'9 8.9
2014-Aug-28 06:33N 57°34' E 011°40'1716.9
2014-Aug-28 05:33N 57°17' E 011°35'1918.8
2014-Aug-28 04:33N 56°60' E 011°45'1817.8
2014-Aug-28 03:33N 56°42' E 011°51'2019.9
2014-Aug-28 02:33N 56°25' E 011°32'2019.6
2014-Aug-28 01:33N 56°08' E 011°13'2019.9
2014-Aug-28 00:33N 55°52' E 010°53'8016.0
2014-Aug-27 19:33N 54°34' E 011°20'2019.3
2014-Aug-27 18:31N 54°26' E 011°52'1516.1
2014-Aug-27 17:33N 54°34' E 012°15'1919.0
2014-Aug-27 16:33N 54°46' E 012°41'2019.8
2014-Aug-27 15:33N 54°54' E 013°12'2020.1
2014-Aug-27 14:33N 54°60' E 013°46'1919.1
2014-Aug-27 13:33N 55°09' E 014°14'2020.3
2014-Aug-27 12:33N 55°26' E 014°35'2020.3
2014-Aug-27 11:33N 55°37' E 015°05'36420.2
2014-Aug-26 17:33N 59°38' E 023°35'2520.5
2014-Aug-26 16:18N 59°48' E 024°21'2313.3
2014-Aug-26 14:33N 60°05' E 024°53'5 4.4
2014-Aug-26 13:31N 60°09' E 024°55'0 0.0
2014-Aug-26 12:31N 60°09' E 024°55'0 0.0
2014-Aug-26 11:31N 60°09' E 024°55'0 0.0
2014-Aug-26 10:31N 60°09' E 024°55'0 0.0
2014-Aug-26 09:31N 60°09' E 024°55'0 0.0
2014-Aug-26 08:31N 60°09' E 024°55'0 0.0
2014-Aug-26 07:31N 60°09' E 024°55'0 0.0
2014-Aug-26 06:31N 60°09' E 024°55'0 0.0
2014-Aug-26 05:31N 60°09' E 024°55'0 0.0
2014-Aug-26 04:31N 60°09' E 024°55'4 4.6
2014-Aug-26 03:33N 60°05' E 024°54'4812.0
2014-Aug-25 23:33N 60°01' E 026°29'11112.3
2014-Aug-25 14:33N 59°57' E 030°11'0 0.1
2014-Aug-25 11:27N 59°57' E 030°11'0 0.0
2014-Aug-25 10:24N 59°57' E 030°11'0 0.0
2014-Aug-24 09:24N 59°57' E 030°11'0 0.0
2014-Aug-24 08:33N 59°57' E 030°11'0 0.0
2014-Aug-24 03:12N 59°57' E 030°11'0 0.2
2014-Aug-24 02:29N 59°57' E 030°11'9112.9
2014-Aug-23 19:25N 59°59' E 027°09'108 6.6
2014-Aug-23 03:11N 59°29' E 023°44'1217.1
2014-Aug-23 02:29N 59°29' E 023°20'35419.4
2014-Aug-22 08:12N 55°32' E 015°11'1320.6
2014-Aug-22 07:33N 55°27' E 014°49'2119.8
2014-Aug-22 06:31N 55°12' E 014°24'2119.9
2014-Aug-22 05:27N 54°59' E 013°55'1820.5
2014-Aug-22 04:33N 54°53' E 013°25'2020.0
2014-Aug-22 03:33N 54°46' E 012°52'1919.2
2014-Aug-22 02:33N 54°37' E 012°23'1817.9
2014-Aug-22 01:33N 54°24' E 012°01'10612.6
2014-Aug-21 17:08N 56°10' E 011°55'1119.6
2014-Aug-21 16:33N 56°12' E 012°15'1717.0
2014-Aug-21 15:33N 56°02' E 012°40'1716.6
2014-Aug-21 14:33N 55°45' E 012°41'4 4.5
2014-Aug-21 13:33N 55°42' E 012°36'0 0.0
2014-Aug-21 12:33N 55°42' E 012°36'0 0.0
2014-Aug-21 11:33N 55°42' E 012°36'0 0.0
2014-Aug-21 10:33N 55°42' E 012°36'0 0.0
2014-Aug-21 09:33N 55°42' E 012°36'0 0.0
2014-Aug-21 08:33N 55°42' E 012°36'0 0.0
2014-Aug-21 07:30N 55°42' E 012°36'0 0.0
2014-Aug-21 06:33N 55°42' E 012°36'0 0.0
2014-Aug-21 05:33N 55°42' E 012°36'0 0.2
2014-Aug-21 04:33N 55°42' E 012°36'8 8.2
2014-Aug-21 03:34N 55°50' E 012°43'1413.7
2014-Aug-21 02:33N 56°03' E 012°38'1817.5
2014-Aug-21 01:33N 56°13' E 012°13'5818.4
2014-Aug-20 22:24N 57°08' E 011°36'1720.7
2014-Aug-20 21:34N 57°25' E 011°26'2020.3
2014-Aug-20 20:33N 57°39' E 011°01'2120.8
2014-Aug-20 19:33N 57°51' E 010°29'44619.4
2014-Aug-19 20:34N 52°10' E 002°08'1919.4
2014-Aug-19 19:33N 51°54' E 001°49'10 9.9
2014-Aug-19 18:33N 51°53' E 001°33'1010.4
2014-Aug-19 17:34N 51°57' E 001°18'2 1.5
2014-Aug-19 16:33N 51°57' E 001°16'0 0.0
2014-Aug-19 15:33N 51°57' E 001°16'0 0.0
2014-Aug-19 14:33N 51°57' E 001°16'0 0.0
2014-Aug-19 13:33N 51°57' E 001°16'0 0.0
2014-Aug-19 12:33N 51°57' E 001°16'0 0.0
2014-Aug-19 11:33N 51°57' E 001°16'0 0.0
2014-Aug-19 10:33N 51°57' E 001°16'0 0.0
2014-Aug-19 09:33N 51°57' E 001°16'0 0.0
2014-Aug-19 08:33N 51°57' E 001°16'0 0.0
2014-Aug-19 07:33N 51°57' E 001°16'0 0.0
2014-Aug-19 06:33N 51°57' E 001°16'0 0.0
2014-Aug-19 05:33N 51°57' E 001°16'0 0.0
2014-Aug-19 04:33N 51°57' E 001°16'0 0.0
2014-Aug-19 03:33N 51°57' E 001°16'4 4.1
2014-Aug-19 02:33N 51°56' E 001°22'  
Track history (hours):
 
Tides and Currents Weather Stations Pressure Air Temp Water Temp Dewpoint Dewpoint Depression Visibility Wind Speed Wind Dir Waves Ship Positions

Brilliance Of The Seas

Operator: Royal Caribbean Cruises Ltd

Last reported at 2014-Aug-29 02:31 UTC. Time now 2014-Aug-29 05:32 UTC.
Position N 59°29' E 010°35'.

Type: Ship. MMSI: 311361000.

Date/timePositionNaut miles runAvg speedWind from/ knotsBaromVisibWave heightAir tempDewpointWater temp
2014-Aug-29 02:31N 59°29' E 010°35'1717.9
2014-Aug-29 01:33N 59°12' E 010°39'1413.5
2014-Aug-29 00:33N 58°58' E 010°34'5914.4
2014-Aug-28 20:27N 58°00' E 010°51'1314.9
2014-Aug-28 19:33N 57°50' E 011°07'1514.9
2014-Aug-28 18:33N 57°39' E 011°25'9 9.0
2014-Aug-28 17:34N 57°40' E 011°42'4 4.2
2014-Aug-28 16:32N 57°42' E 011°49'0 0.0
2014-Aug-28 15:32N 57°42' E 011°49'0 0.0
2014-Aug-28 14:32N 57°42' E 011°49'0 0.0
2014-Aug-28 13:32N 57°42' E 011°49'0 0.0
2014-Aug-28 12:32N 57°42' E 011°49'0 0.0
2014-Aug-28 11:32N 57°42' E 011°49'0 0.0
2014-Aug-28 10:32N 57°42' E 011°49'0 0.0
2014-Aug-28 09:32N 57°42' E 011°49'0 0.0
2014-Aug-28 08:32N 57°42' E 011°49'0 0.1
2014-Aug-28 07:34N 57°42' E 011°49'9 8.9
2014-Aug-28 06:33N 57°34' E 011°40'1716.9
2014-Aug-28 05:33N 57°17' E 011°35'1918.8
2014-Aug-28 04:33N 56°60' E 011°45'1817.8
2014-Aug-28 03:33N 56°42' E 011°51'2019.9
2014-Aug-28 02:33N 56°25' E 011°32'2019.6
2014-Aug-28 01:33N 56°08' E 011°13'2019.9
2014-Aug-28 00:33N 55°52' E 010°53'8016.0
2014-Aug-27 19:33N 54°34' E 011°20'2019.3
2014-Aug-27 18:31N 54°26' E 011°52'1516.1
2014-Aug-27 17:33N 54°34' E 012°15'1919.0
2014-Aug-27 16:33N 54°46' E 012°41'2019.8
2014-Aug-27 15:33N 54°54' E 013°12'2020.1
2014-Aug-27 14:33N 54°60' E 013°46'1919.1
2014-Aug-27 13:33N 55°09' E 014°14'2020.3
2014-Aug-27 12:33N 55°26' E 014°35'2020.3
2014-Aug-27 11:33N 55°37' E 015°05'36420.2
2014-Aug-26 17:33N 59°38' E 023°35'2520.5
2014-Aug-26 16:18N 59°48' E 024°21'2313.3
2014-Aug-26 14:33N 60°05' E 024°53'5 4.4
2014-Aug-26 13:31N 60°09' E 024°55'0 0.0
2014-Aug-26 12:31N 60°09' E 024°55'0 0.0
2014-Aug-26 11:31N 60°09' E 024°55'0 0.0
2014-Aug-26 10:31N 60°09' E 024°55'0 0.0
2014-Aug-26 09:31N 60°09' E 024°55'0 0.0
2014-Aug-26 08:31N 60°09' E 024°55'0 0.0
2014-Aug-26 07:31N 60°09' E 024°55'0 0.0
2014-Aug-26 06:31N 60°09' E 024°55'0 0.0
2014-Aug-26 05:31N 60°09' E 024°55'0 0.0
2014-Aug-26 04:31N 60°09' E 024°55'4 4.6
2014-Aug-26 03:33N 60°05' E 024°54'4812.0
2014-Aug-25 23:33N 60°01' E 026°29'11112.3
2014-Aug-25 14:33N 59°57' E 030°11'0 0.1
2014-Aug-25 11:27N 59°57' E 030°11'0 0.0
2014-Aug-25 10:24N 59°57' E 030°11'0 0.0
2014-Aug-24 09:24N 59°57' E 030°11'0 0.0
2014-Aug-24 08:33N 59°57' E 030°11'0 0.0
2014-Aug-24 03:12N 59°57' E 030°11'0 0.2
2014-Aug-24 02:29N 59°57' E 030°11'9112.9
2014-Aug-23 19:25N 59°59' E 027°09'108 6.6
2014-Aug-23 03:11N 59°29' E 023°44'1217.1
2014-Aug-23 02:29N 59°29' E 023°20'35419.4
2014-Aug-22 08:12N 55°32' E 015°11'1320.6
2014-Aug-22 07:33N 55°27' E 014°49'2119.8
2014-Aug-22 06:31N 55°12' E 014°24'2119.9
2014-Aug-22 05:27N 54°59' E 013°55'1820.5
2014-Aug-22 04:33N 54°53' E 013°25'2020.0
2014-Aug-22 03:33N 54°46' E 012°52'1919.2
2014-Aug-22 02:33N 54°37' E 012°23'1817.9
2014-Aug-22 01:33N 54°24' E 012°01'10612.6
2014-Aug-21 17:08N 56°10' E 011°55'1119.6
2014-Aug-21 16:33N 56°12' E 012°15'1717.0
2014-Aug-21 15:33N 56°02' E 012°40'1716.6
2014-Aug-21 14:33N 55°45' E 012°41'4 4.5
2014-Aug-21 13:33N 55°42' E 012°36'0 0.0
2014-Aug-21 12:33N 55°42' E 012°36'0 0.0
2014-Aug-21 11:33N 55°42' E 012°36'0 0.0
2014-Aug-21 10:33N 55°42' E 012°36'0 0.0
2014-Aug-21 09:33N 55°42' E 012°36'0 0.0
2014-Aug-21 08:33N 55°42' E 012°36'0 0.0
2014-Aug-21 07:30N 55°42' E 012°36'0 0.0
2014-Aug-21 06:33N 55°42' E 012°36'0 0.0
2014-Aug-21 05:33N 55°42' E 012°36'0 0.2
2014-Aug-21 04:33N 55°42' E 012°36'8 8.2
2014-Aug-21 03:34N 55°50' E 012°43'1413.7
2014-Aug-21 02:33N 56°03' E 012°38'1817.5
2014-Aug-21 01:33N 56°13' E 012°13'5818.4
2014-Aug-20 22:24N 57°08' E 011°36'1720.7
2014-Aug-20 21:34N 57°25' E 011°26'2020.3
2014-Aug-20 20:33N 57°39' E 011°01'2120.8
2014-Aug-20 19:33N 57°51' E 010°29'44619.4
2014-Aug-19 20:34N 52°10' E 002°08'1919.4
2014-Aug-19 19:33N 51°54' E 001°49'10 9.9
2014-Aug-19 18:33N 51°53' E 001°33'1010.4
2014-Aug-19 17:34N 51°57' E 001°18'2 1.5
2014-Aug-19 16:33N 51°57' E 001°16'0 0.0
2014-Aug-19 15:33N 51°57' E 001°16'0 0.0
2014-Aug-19 14:33N 51°57' E 001°16'0 0.0
2014-Aug-19 13:33N 51°57' E 001°16'0 0.0
2014-Aug-19 12:33N 51°57' E 001°16'0 0.0
2014-Aug-19 11:33N 51°57' E 001°16'0 0.0
2014-Aug-19 10:33N 51°57' E 001°16'0 0.0
2014-Aug-19 09:33N 51°57' E 001°16'0 0.0
2014-Aug-19 08:33N 51°57' E 001°16'0 0.0
2014-Aug-19 07:33N 51°57' E 001°16'0 0.0
2014-Aug-19 06:33N 51°57' E 001°16'0 0.0
2014-Aug-19 05:33N 51°57' E 001°16'0 0.0
2014-Aug-19 04:33N 51°57' E 001°16'0 0.0
2014-Aug-19 03:33N 51°57' E 001°16'4 4.1
2014-Aug-19 02:33N 51°56' E 001°22'  

Dump ship's entire track history